Latest Weather Observations for Garden Island

IDW60801

Issued at 12:53 pm WST Thursday 1 October 2020 (issued every 10 minutes, with the page automatically refreshed every 10 minutes)

About weather observations | Map of weather stations | Latest weather observations for WA | Other Formats
Station Details ID: 009256 Name: GARDEN ISLAND HSF Lat: -32.24 Lon: 115.68 Height: 6.0 m
Data from the previous 72 hours. | See also: Recent months at Garden Island
Date/Time
WST
Temp
°C
App
Temp
°C
Dew
Point
°C
Rel
Hum
%
Delta-T
°C
Wind Press
QNH
hPa
Press
MSL
hPa
Rain since
9am
mm
Dir  Spd
km/h
Gust
km/h
Spd
kts
Gust
kts
01/12:30pm 19.7 15.2 12.5 63 4.0 WNW 28 37 15 20 1014.7 1014.7 0.0
01/12:00pm 19.8 15.7 13.7 68 3.5 WNW 28 37 15 20 1014.9 1014.9 0.0
01/11:30am 19.6 15.1 12.6 64 3.9 WNW 28 39 15 21 1015.0 1015.0 0.0
01/11:00am 18.9 15.6 12.9 68 3.4 WNW 22 30 12 16 1015.2 1015.2 0.0
01/10:30am 19.3 16.4 13.0 67 3.6 W 20 28 11 15 1015.0 1015.0 0.0
01/10:00am 19.5 16.1 13.7 69 3.3 W 24 32 13 17 1015.0 1015.0 0.0
01/09:30am 18.6 15.0 13.0 70 3.2 W 24 30 13 16 1014.9 1014.9 0.0
01/09:00am 18.9 15.0 13.3 70 3.2 W 26 32 14 17 1014.7 1014.7 -
01/08:30am 18.5 15.6 14.0 75 2.6 W 22 32 12 17 1014.5 1014.5 -
01/08:00am 18.8 15.7 13.4 71 3.1 W 22 32 12 17 1014.3 1014.3 -
01/07:30am 18.4 14.3 12.8 70 3.1 W 26 30 14 16 1014.2 1014.2 -
01/07:00am 18.1 14.9 13.2 73 2.8 W 22 30 12 16 1014.2 1014.2 -
01/06:30am 18.0 14.6 12.5 70 3.1 W 22 28 12 15 1013.9 1013.9 -
01/06:00am 17.9 13.7 12.4 70 3.0 W 26 35 14 19 1013.9 1013.9 -
01/05:30am 17.8 13.9 12.0 69 3.2 W 24 33 13 18 1013.7 1013.7 -
01/05:00am 17.8 13.8 11.8 68 3.3 W 24 32 13 17 1013.4 1013.4 -
01/04:30am 17.9 14.1 12.4 70 3.1 W 24 32 13 17 1013.3 1013.3 -
01/04:00am 17.8 13.6 12.3 70 3.0 W 26 33 14 18 1013.3 1013.3 -
01/03:30am 17.6 14.9 11.6 68 3.3 WNW 17 22 9 12 1013.3 1013.3 -
01/03:00am 17.6 13.4 11.2 66 3.5 W 24 32 13 17 1013.5 1013.5 0.0
01/02:30am 17.6 14.5 12.1 70 3.0 W 20 26 11 14 1013.5 1013.5 -
01/02:00am 17.5 14.8 11.8 69 3.1 WNW 17 24 9 13 1013.7 1013.7 -
01/01:30am 17.5 12.9 11.1 66 3.5 W 26 32 14 17 1014.2 1014.2 -
01/01:00am 17.7 12.3 12.2 70 3.0 W 32 39 17 21 1014.4 1014.4 -
01/12:30am 18.0 14.8 13.1 73 2.8 W 22 30 12 16 1014.5 1014.5 -
01/12:00am 17.8 15.2 13.7 77 2.3 W 20 24 11 13 1014.6 1014.6 -
 
Date/Time
WST
Temp
°C
App
Temp
°C
Dew
Point
°C
Rel
Hum
%
Delta-T
°C
Wind Press
QNH
hPa
Press
MSL
hPa
Rain since
9am
mm
Dir  Spd
km/h
Gust
km/h
Spd
kts
Gust
kts
30/11:30pm 18.0 15.6 14.3 79 2.1 W 20 28 11 15 1014.8 1014.8 -
30/11:00pm 18.1 15.1 12.5 70 3.1 WNW 20 26 11 14 1015.1 1015.1 -
30/10:30pm 18.0 14.9 13.3 74 2.7 W 22 28 12 15 1015.5 1015.5 -
30/10:00pm 17.7 15.5 14.8 83 1.7 W 20 24 11 13 1015.9 1015.9 -
30/09:30pm 18.0 15.6 14.5 80 2.0 W 20 28 11 15 1016.0 1016.0 -
30/09:00pm 18.1 14.6 14.6 80 2.0 W 26 30 14 16 1016.1 1016.1 0.0
30/08:30pm 17.9 16.0 15.3 85 1.5 W 19 24 10 13 1016.2 1016.2 -
30/08:00pm 18.4 15.7 14.5 78 2.3 W 22 28 12 15 1016.1 1016.1 -
30/07:30pm 18.5 15.2 14.0 75 2.6 W 24 28 13 15 1015.8 1015.8 -
30/07:00pm 18.1 15.5 14.8 81 1.9 W 22 26 12 14 1015.6 1015.6 -
30/06:30pm 18.0 15.9 15.3 84 1.6 W 20 24 11 13 1015.4 1015.4 -
30/06:00pm 18.0 16.1 15.1 83 1.7 W 19 20 10 11 1015.4 1015.4 -
30/05:30pm 18.1 15.9 15.0 82 1.8 W 20 24 11 13 1015.5 1015.5 -
30/05:00pm 18.5 17.1 14.6 78 2.3 WNW 15 20 8 11 1015.5 1015.5 -
30/04:30pm 18.9 17.3 15.0 78 2.3 NW 17 20 9 11 1015.5 1015.5 -
30/04:00pm 19.0 17.1 14.3 74 2.7 NW 17 20 9 11 1015.5 1015.5 -
30/03:30pm 19.1 17.3 14.4 74 2.7 NW 17 22 9 12 1015.7 1015.7 -
30/03:00pm 19.1 17.7 14.4 74 2.7 NW 15 19 8 10 1015.8 1015.8 -
30/02:30pm 18.5 17.4 14.4 77 2.4 NNW 13 15 7 8 1016.0 1016.0 -
30/02:00pm 19.0 18.4 14.5 75 2.6 NW 11 15 6 8 1016.3 1016.3 -
30/01:30pm 18.7 17.2 14.2 75 2.6 NW 15 20 8 11 1016.6 1016.6 -
30/01:00pm 18.7 18.4 14.4 76 2.5 WNW 9 11 5 6 1016.9 1016.9 -
30/12:30pm 18.8 18.5 14.3 75 2.6 WNW 9 78 5 42 1017.1 1017.1 -
30/12:24pm 19.1 18.9 13.7 71 3.1 WNW 7 78 4 42 1017.2 1017.2 -
30/12:00pm 19.6 19.5 14.0 70 3.2 WNW 7 15 4 8 1017.5 1017.5 -
30/11:30am 18.4 17.5 13.7 74 2.7 W 11 15 6 8 1017.8 1017.8 -
30/11:00am 18.5 17.2 13.6 73 2.8 WNW 13 20 7 11 1018.0 1018.0 -
30/10:30am 19.2 18.0 14.0 72 3.0 NW 13 15 7 8 1018.3 1018.3 -
30/10:00am 18.8 17.8 13.4 71 3.1 WNW 11 15 6 8 1018.5 1018.5 -
30/09:30am 19.1 18.2 13.7 71 3.1 NW 11 15 6 8 1018.5 1018.5 -
30/09:00am 18.3 16.8 13.0 71 3.0 WNW 13 17 7 9 1018.5 1018.5 -
30/08:30am 18.0 16.9 13.1 73 2.8 W 11 15 6 8 1018.5 1018.5 -
30/08:00am 17.9 17.5 12.4 70 3.0 NNW 6 9 3 5 1018.4 1018.4 -
30/07:30am 17.7 16.7 12.2 70 3.0 NW 9 17 5 9 1018.2 1018.2 -
30/07:00am 17.3 15.8 11.8 70 3.0 NW 11 17 6 9 1018.1 1018.1 -
30/06:30am 17.2 16.0 12.9 76 2.4 WSW 11 15 6 8 1018.0 1018.0 -
30/06:00am 17.2 15.8 13.3 78 2.2 WSW 13 15 7 8 1017.8 1017.8 -
30/05:30am 17.0 15.1 11.9 72 2.8 W 13 17 7 9 1017.7 1017.7 -
30/05:00am 17.0 15.7 12.5 75 2.5 WSW 11 15 6 8 1017.5 1017.5 -
30/04:30am 17.1 15.6 13.2 78 2.2 WSW 13 15 7 8 1017.6 1017.6 -
30/04:00am 17.0 15.8 11.5 70 3.0 W 9 11 5 6 1017.8 1017.8 -
30/03:30am 17.2 14.4 11.5 69 3.1 WSW 17 20 9 11 1017.9 1017.9 -
30/03:00am 17.3 14.5 12.6 74 2.6 SW 19 22 10 12 1017.9 1017.9 -
30/02:30am 17.1 14.4 13.4 79 2.1 SW 20 26 11 14 1018.1 1018.1 -
30/02:00am 17.2 14.8 13.7 80 2.0 SW 19 26 10 14 1018.3 1018.3 -
30/01:30am 17.3 14.8 13.4 78 2.2 SW 19 24 10 13 1018.4 1018.4 -
30/01:00am 17.3 14.1 13.2 77 2.3 SW 22 26 12 14 1018.5 1018.5 -
30/12:30am 17.5 14.6 12.8 74 2.6 WSW 20 26 11 14 1018.8 1018.8 -
30/12:00am 17.6 14.4 11.9 69 3.1 WSW 20 26 11 14 1018.9 1018.9 -
 
Date/Time
WST
Temp
°C
App
Temp
°C
Dew
Point
°C
Rel
Hum
%
Delta-T
°C
Wind Press
QNH
hPa
Press
MSL
hPa
Rain since
9am
mm
Dir  Spd
km/h
Gust
km/h
Spd
kts
Gust
kts
29/11:30pm 17.7 13.8 12.2 70 3.0 WSW 24 32 13 17 1019.1 1019.1 -
29/11:00pm 17.4 14.4 12.5 73 2.7 WSW 20 26 11 14 1019.2 1019.2 -
29/10:30pm 17.3 14.9 13.8 80 2.0 WSW 19 22 10 12 1019.4 1019.4 -
29/10:00pm 17.1 14.7 13.8 81 1.9 WSW 19 22 10 12 1019.8 1019.8 -
29/09:30pm 16.9 14.5 14.4 85 1.4 WSW 20 26 11 14 1019.9 1019.9 -
29/09:00pm 16.6 13.5 14.6 88 1.1 WSW 24 30 13 16 1019.8 1019.8 -
29/08:30pm 16.3 14.1 14.8 91 0.9 WSW 20 26 11 14 1019.9 1019.9 -
29/08:00pm 16.3 14.4 15.3 94 0.6 WSW 19 28 10 15 1019.9 1019.9 -
29/07:30pm 16.8 14.7 15.2 90 0.9 WSW 20 35 11 19 1019.7 1019.7 -
29/07:00pm 17.9 14.5 13.8 77 2.3 W 24 35 13 19 1019.4 1019.4 -
29/06:30pm 18.1 15.0 13.4 74 2.7 W 22 28 12 15 1019.2 1019.2 -
29/06:00pm 18.2 15.1 13.3 73 2.8 W 22 28 12 15 1019.1 1019.1 -
29/05:30pm 18.0 14.8 13.1 73 2.8 W 22 28 12 15 1018.8 1018.8 -
29/05:00pm 18.1 14.5 13.2 73 2.8 W 24 30 13 16 1018.7 1018.7 -
29/04:30pm 18.2 14.4 13.5 74 2.7 W 26 33 14 18 1018.5 1018.5 -
29/04:00pm 18.3 14.9 13.8 75 2.6 W 24 30 13 16 1018.5 1018.5 -
29/03:30pm 18.5 15.4 14.4 77 2.4 WNW 24 30 13 16 1018.4 1018.4 -
29/03:00pm 18.5 14.4 13.8 74 2.7 W 28 35 15 19 1018.5 1018.5 -
29/02:30pm 18.7 15.0 13.8 73 2.8 W 26 32 14 17 1018.7 1018.7 -
29/02:00pm 18.8 14.6 13.6 72 3.0 W 28 33 15 18 1018.6 1018.6 -
29/01:30pm 18.1 15.3 13.2 73 2.8 WNW 20 28 11 15 1018.7 1018.7 -
29/01:00pm 18.7 15.0 14.0 74 2.7 WNW 26 33 14 18 1018.9 1018.9 -
29/12:30pm 18.4 15.5 14.1 76 2.5 WNW 22 33 12 18 1019.2 1019.2 -
29/12:00pm 19.0 16.5 14.1 73 2.8 NW 20 28 11 15 1019.1 1019.1 -
29/11:30am 19.0 16.0 13.8 72 3.0 WNW 22 30 12 16 1019.4 1019.4 -
29/11:00am 18.4 14.2 13.5 73 2.8 WNW 28 33 15 18 1019.5 1019.5 -
29/10:30am 18.3 15.8 13.6 74 2.7 NW 19 26 10 14 1019.8 1019.8 -
29/10:00am 18.2 14.8 13.7 75 2.6 NW 24 32 13 17 1019.8 1019.8 -
29/09:30am 18.2 15.8 12.6 70 3.1 WNW 17 24 9 13 1019.8 1019.8 -
29/09:00am 18.1 14.8 11.7 66 3.5 W 20 28 11 15 1019.8 1019.8 -
29/08:30am 18.0 14.6 11.1 64 3.7 WNW 20 24 11 13 1019.7 1019.7 -
29/08:00am 18.1 14.9 11.9 67 3.4 WNW 20 26 11 14 1019.5 1019.5 -
29/07:30am 17.4 13.7 11.4 68 3.3 W 22 32 12 17 1019.3 1019.3 -
29/07:00am 17.8 13.7 11.4 66 3.5 W 24 32 13 17 1019.1 1019.1 -
29/06:30am 17.3 13.0 12.2 72 2.8 WSW 26 33 14 18 1019.0 1019.0 -
29/06:00am 17.2 13.3 12.1 72 2.8 W 24 32 13 17 1018.9 1018.9 -
29/05:30am 17.4 14.0 12.5 73 2.7 W 22 30 12 16 1018.6 1018.6 -
29/05:00am 17.3 14.4 12.8 75 2.5 W 20 24 11 13 1018.2 1018.2 -
29/04:30am 17.1 14.2 12.2 73 2.7 W 19 26 10 14 1017.7 1017.7 -
29/04:00am 17.0 14.2 11.3 69 3.1 WNW 17 26 9 14 1017.4 1017.4 -
29/03:30am 16.7 13.5 11.4 71 2.9 WNW 19 24 10 13 1017.6 1017.6 -
29/03:00am 16.6 13.8 11.5 72 2.8 WNW 17 20 9 11 1017.8 1017.8 -
29/02:30am 15.9 13.4 11.1 73 2.6 WNW 15 19 8 10 1018.0 1018.0 -
29/02:00am 16.0 13.9 11.2 73 2.6 WNW 13 19 7 10 1018.3 1018.3 -
29/01:30am 16.0 13.5 11.2 73 2.6 W 15 19 8 10 1018.8 1018.8 -
29/01:00am 16.2 12.8 10.7 70 2.9 WSW 19 24 10 13 1019.2 1019.2 -
29/12:30am 15.9 12.7 10.0 68 3.1 W 17 20 9 11 1019.3 1019.3 -
29/12:00am 16.0 13.4 10.7 71 2.8 W 15 20 8 11 1019.4 1019.4 -
 
Date/Time
WST
Temp
°C
App
Temp
°C
Dew
Point
°C
Rel
Hum
%
Delta-T
°C
Wind Press
QNH
hPa
Press
MSL
hPa
Rain since
9am
mm
Dir  Spd
km/h
Gust
km/h
Spd
kts
Gust
kts
28/11:30pm 16.0 13.4 10.7 71 2.8 W 15 20 8 11 1019.6 1019.6 -
28/11:00pm 16.1 12.9 10.0 67 3.2 WSW 17 20 9 11 1019.7 1019.7 -
28/10:30pm 16.2 13.6 10.7 70 2.9 WSW 15 20 8 11 1019.7 1019.7 -
28/10:00pm 16.3 13.3 10.8 70 2.9 WSW 17 20 9 11 1020.0 1020.0 -
28/09:30pm 16.4 13.5 11.1 71 2.8 WSW 17 22 9 12 1020.0 1020.0 -
28/09:00pm 16.3 13.3 10.8 70 2.9 WSW 17 20 9 11 1020.0 1020.0 -
28/08:30pm 16.3 13.3 10.8 70 2.9 WSW 17 20 9 11 1019.9 1019.9 -
28/08:00pm 16.4 13.1 10.9 70 2.9 WSW 19 24 10 13 1019.8 1019.8 -
28/07:30pm 16.5 13.5 10.8 69 3.0 WSW 17 22 9 12 1019.6 1019.6 -
28/07:00pm 16.6 13.7 10.9 69 3.0 WSW 17 20 9 11 1019.3 1019.3 -
28/06:30pm 16.5 13.2 10.8 69 3.0 WSW 19 22 10 12 1019.0 1019.0 -
28/06:00pm 16.8 13.4 10.6 67 3.3 SW 19 24 10 13 1018.8 1018.8 -
28/05:30pm 17.3 14.0 10.9 66 3.4 SW 19 28 10 15 1018.6 1018.6 -
28/05:00pm 17.6 14.5 11.6 68 3.3 SW 19 26 10 14 1018.4 1018.4 -
28/04:30pm 17.8 14.3 10.9 64 3.7 SW 20 26 11 14 1018.3 1018.3 -
28/04:00pm 18.3 14.7 10.7 61 4.1 WSW 20 28 11 15 1017.9 1017.9 -
28/03:30pm 18.4 14.9 11.0 62 4.0 WSW 20 28 11 15 1017.9 1017.9 -
28/03:00pm 18.5 15.3 11.8 65 3.7 WSW 20 28 11 15 1017.9 1017.9 -
28/02:30pm 18.6 15.1 12.1 66 3.6 WSW 22 30 12 16 1017.7 1017.7 -
28/02:00pm 19.0 16.2 13.2 69 3.3 WSW 20 26 11 14 1018.0 1018.0 -
28/01:30pm 18.4 15.8 13.7 74 2.7 SW 20 28 11 15 1017.7 1017.7 -
28/01:00pm 18.8 16.0 14.3 75 2.6 SW 22 30 12 16 1017.9 1017.9 -

Other formats

Comma delimited format used in spreadsheet applications
http://www.bom.gov.au/fwo/IDW60801/IDW60801.95607.axf

JavaScript Object Notation format (JSON) in row-major order
http://www.bom.gov.au/fwo/IDW60801/IDW60801.95607.json

Data quality

Most of these data are generated automatically and are frequently updated. Quality checks on data are not normally performed. It is possible for incorrect values to appear. Refer to information at About Latest Weather Observations and please check the disclaimer before using these data.